Time;durP1;ratioP1;P1;durP2;ratioP2;P2;SDS_P1;SDS_P2;PMS_P1;PMS_P2;Temp;Humidity;BMP_temperature;BMP_pressure;BME280_temperature;BME280_humidity;BME280_pressure;Samples;Min_cycle;Max_cycle;Signal;HPM_P1;HPM_P2
2022/05/15 00:02:24;;;;;;;37.13;11.57;;;;;;;14.81;55.35;102199.41;5216401;28;20516;-51
2022/05/15 00:04:57;;;;;;;35.45;13.05;;;;;;;14.78;55.40;102205.03;5205003;28;20916;-51
2022/05/15 00:07:29;;;;;;;39.47;12.38;;;;;;;14.81;55.58;102209.22;5220425;28;20423;-48
2022/05/15 00:10:02;;;;;;;41.07;12.17;;;;;;;14.38;55.66;102150.22;5221026;28;20427;-51
2022/05/15 00:12:36;;;;;;;43.55;13.18;;;;;;;14.60;55.73;102181.00;5201365;28;20435;-51
2022/05/15 00:15:10;;;;;;;41.73;11.73;;;;;;;14.71;55.91;102191.47;5208645;28;20786;-51
2022/05/15 00:17:42;;;;;;;41.58;12.65;;;;;;;14.71;56.04;102172.84;5202147;28;20511;-51
2022/05/15 00:20:15;;;;;;;38.20;12.20;;;;;;;14.82;56.13;102189.63;5205842;28;20506;-49
2022/05/15 00:22:47;;;;;;;40.95;11.00;;;;;;;14.65;55.99;102170.78;5220483;28;20411;-48
2022/05/15 00:25:20;;;;;;;43.22;12.63;;;;;;;14.65;56.27;102160.13;5216984;28;20537;-52
2022/05/15 00:27:55;;;;;;;45.07;12.50;;;;;;;14.84;56.17;102185.00;5215977;28;20779;-52
2022/05/15 00:30:28;;;;;;;41.00;12.05;;;;;;;14.89;56.19;102188.03;5215051;28;20427;-53
2022/05/15 00:33:00;;;;;;;38.53;12.35;;;;;;;14.89;56.15;102190.69;5219091;28;20788;-51
2022/05/15 00:35:35;;;;;;;44.47;12.20;;;;;;;14.83;56.29;102176.16;5218495;28;20435;-49
2022/05/15 00:38:11;;;;;;;43.90;12.52;;;;;;;14.78;56.38;102166.97;5215612;28;20422;-50
2022/05/15 00:40:48;;;;;;;47.25;12.70;;;;;;;14.82;56.57;102181.63;5217905;28;20445;-50
2022/05/15 00:46:21;;;;;;;34.28;11.73;;;;;;;14.73;56.59;102165.56;5166867;27;2248115;-47
2022/05/15 00:48:54;;;;;;;41.90;11.43;;;;;;;14.82;56.73;102178.97;5241288;28;20476;-49
2022/05/15 00:51:35;;;;;;;36.90;12.13;;;;;;;14.73;56.57;102170.88;5228519;28;20425;-52
2022/05/15 00:54:14;;;;;;;39.17;12.27;;;;;;;14.78;57.03;102177.59;5240688;28;20492;-49
2022/05/15 00:56:52;;;;;;;40.35;11.90;;;;;;;14.78;56.91;102177.59;5231365;28;22394;-50
2022/05/15 00:59:29;;;;;;;43.50;12.65;;;;;;;14.69;56.97;102169.50;5230905;28;20515;-50
2022/05/15 01:02:04;;;;;;;40.35;12.25;;;;;;;14.79;57.06;102176.59;5229434;28;20423;-48
2022/05/15 01:04:37;;;;;;;41.08;12.00;;;;;;;14.71;57.39;102166.66;5248147;28;20442;-51
2022/05/15 01:07:09;;;;;;;51.63;11.67;;;;;;;14.73;57.26;102175.34;5243794;28;20412;-48
2022/05/15 01:09:45;;;;;;;35.92;10.90;;;;;;;14.55;57.28;102158.47;5236858;28;20434;-49
2022/05/15 01:12:18;;;;;;;38.33;10.63;;;;;;;14.62;57.42;102179.03;5241313;28;20839;-51
2022/05/15 01:14:51;;;;;;;39.63;11.52;;;;;;;14.62;57.39;102171.06;5235855;28;20411;-48
2022/05/15 01:17:25;;;;;;;46.58;11.60;;;;;;;14.67;57.39;102176.75;5233278;28;20413;-51
2022/05/15 01:20:04;;;;;;;41.83;10.90;;;;;;;14.67;57.52;102178.59;5218817;28;20520;-49
2022/05/15 01:22:38;;;;;;;46.45;10.85;;;;;;;14.56;57.57;102170.78;5209424;28;20557;-49
2022/05/15 01:25:17;;;;;;;40.85;11.68;;;;;;;14.59;57.67;102173.16;5219731;28;20588;-48
2022/05/15 01:27:55;;;;;;;28.20;10.17;;;;;;;14.58;57.72;102180.28;5217237;28;20405;-50
2022/05/15 01:30:31;;;;;;;38.03;10.05;;;;;;;14.50;57.74;102175.66;5207404;28;20518;-46
2022/05/15 01:33:04;;;;;;;35.45;10.45;;;;;;;14.37;57.80;102163.63;5209716;28;22027;-47
2022/05/15 01:35:38;;;;;;;45.33;10.60;;;;;;;14.27;57.89;102142.41;5221017;28;20456;-47
2022/05/15 01:38:12;;;;;;;34.55;10.00;;;;;;;14.29;57.99;102146.59;5219126;28;20453;-54
2022/05/15 01:40:45;;;;;;;29.45;9.77;;;;;;;14.44;57.96;102170.91;5220155;28;20427;-51
2022/05/15 01:43:18;;;;;;;40.17;9.55;;;;;;;14.47;57.92;102180.44;5218557;28;20746;-50
2022/05/15 01:45:50;;;;;;;42.63;11.00;;;;;;;14.42;58.00;102172.03;5213607;28;20504;-53
2022/05/15 01:48:23;;;;;;;38.80;10.68;;;;;;;14.35;57.99;102157.66;5217099;28;20809;-48
2022/05/15 01:50:55;;;;;;;34.00;11.37;;;;;;;14.38;58.09;102166.16;5219172;28;20448;-52
2022/05/15 01:53:30;;;;;;;33.78;8.40;;;;;;;14.38;58.10;102162.69;5223162;28;20498;-52
2022/05/15 01:56:05;;;;;;;41.45;11.05;;;;;;;14.41;57.92;102171.19;5217672;28;20431;-50
2022/05/15 01:58:38;;;;;;;45.45;11.68;;;;;;;14.41;58.01;102171.19;5201201;28;20518;-53
2022/05/15 02:01:10;;;;;;;38.40;9.70;;;;;;;14.34;58.14;102158.59;5199734;28;20495;-48
2022/05/15 02:03:43;;;;;;;41.65;11.07;;;;;;;14.04;57.96;102124.09;5204524;28;20440;-46
2022/05/15 02:06:16;;;;;;;43.25;10.50;;;;;;;14.30;58.12;102166.03;5203790;28;20526;-49
2022/05/15 02:08:50;;;;;;;42.45;11.80;;;;;;;14.29;57.83;102157.22;5185290;28;20470;-48
2022/05/15 02:11:23;;;;;;;37.20;10.45;;;;;;;14.26;58.08;102151.34;5206972;28;20616;-49
2022/05/15 02:13:55;;;;;;;32.65;9.20;;;;;;;14.35;57.90;102161.13;5201267;28;20839;-48
2022/05/15 02:16:28;;;;;;;36.10;10.13;;;;;;;14.18;57.85;102127.31;5203429;28;20409;-52
2022/05/15 02:19:01;;;;;;;33.70;9.90;;;;;;;14.10;57.94;102124.53;5201125;28;20995;-49
2022/05/15 02:21:33;;;;;;;37.25;9.35;;;;;;;14.13;57.95;102134.88;5204453;28;20525;-51
2022/05/15 02:24:09;;;;;;;36.92;9.70;;;;;;;14.19;58.15;102156.41;5202297;28;21017;-50
2022/05/15 02:26:42;;;;;;;35.83;8.98;;;;;;;14.06;58.25;102145.22;5204014;28;20901;-50
2022/05/15 02:29:14;;;;;;;36.53;10.50;;;;;;;14.05;58.15;102160.31;5199550;28;20450;-50
2022/05/15 02:31:47;;;;;;;60.72;9.45;;;;;;;14.07;58.20;102155.69;5206054;28;20421;-49
2022/05/15 02:34:20;;;;;;;40.17;10.13;;;;;;;14.08;58.19;102153.88;5204083;28;20429;-49
2022/05/15 02:36:52;;;;;;;32.63;9.73;;;;;;;14.07;58.26;102160.19;5189630;28;20416;-47
2022/05/15 02:39:26;;;;;;;47.23;10.83;;;;;;;14.08;58.23;102152.06;5205790;28;20520;-51
2022/05/15 02:42:01;;;;;;;34.90;10.18;;;;;;;14.09;58.18;102160.91;5201232;28;20399;-47
2022/05/15 02:44:34;;;;;;;40.80;10.88;;;;;;;14.00;58.16;102143.97;5200862;28;20438;-49
2022/05/15 02:47:07;;;;;;;39.58;9.68;;;;;;;13.95;58.39;102153.34;5209791;28;20512;-51
2022/05/15 02:52:29;;;;;;;38.53;10.23;;;;;;;13.95;58.27;102154.16;5199222;28;20779;-51
2022/05/15 02:55:04;;;;;;;46.35;11.75;;;;;;;13.92;58.26;102149.13;5203587;28;20987;-48
2022/05/15 02:57:39;;;;;;;44.08;11.13;;;;;;;13.89;58.28;102153.88;5204705;28;20449;-53
2022/05/15 03:00:14;;;;;;;39.53;9.95;;;;;;;13.89;58.39;102164.50;5204562;28;20430;-49
2022/05/15 03:02:47;;;;;;;43.88;11.90;;;;;;;13.74;58.50;102133.03;5206713;28;20416;-52
2022/05/15 03:05:21;;;;;;;40.90;10.82;;;;;;;13.75;58.42;102132.09;5207856;28;21051;-47
2022/05/15 03:07:59;;;;;;;42.97;11.93;;;;;;;13.88;58.58;102149.56;5200327;28;20422;-47
2022/05/15 03:10:32;;;;;;;36.80;10.68;;;;;;;13.82;58.55;102141.16;5183743;28;20499;-48
2022/05/15 03:13:05;;;;;;;44.00;11.80;;;;;;;13.79;58.48;102144.09;5203883;28;20511;-49
2022/05/15 03:15:38;;;;;;;50.25;10.38;;;;;;;13.76;58.56;102149.69;5201905;28;20504;-49
2022/05/15 03:18:10;;;;;;;37.25;10.20;;;;;;;13.80;58.59;102151.09;5207893;28;20548;-52
2022/05/15 03:20:43;;;;;;;38.08;10.00;;;;;;;13.80;58.72;102143.13;5202656;28;20415;-47
2022/05/15 03:23:19;;;;;;;44.90;11.10;;;;;;;13.79;58.74;102146.75;5204028;28;20842;-50
2022/05/15 03:25:52;;;;;;;55.33;11.77;;;;;;;13.74;58.63;102138.34;5202836;28;20449;-48
2022/05/15 03:28:25;;;;;;;38.75;10.10;;;;;;;13.75;58.74;102137.41;5203522;28;20574;-50
2022/05/15 03:30:59;;;;;;;38.53;10.82;;;;;;;13.75;58.79;102136.53;5195615;28;20421;-52
2022/05/15 03:33:31;;;;;;;43.75;11.63;;;;;;;13.58;58.95;102114.19;5202397;28;20768;-50
2022/05/15 03:36:10;;;;;;;45.03;10.73;;;;;;;13.66;58.95;102127.63;5183586;28;20425;-48
2022/05/15 03:38:45;;;;;;;44.83;11.80;;;;;;;13.44;58.59;102085.38;5190995;28;20923;-49
2022/05/15 03:41:19;;;;;;;37.17;10.45;;;;;;;13.53;59.32;102100.47;5206275;28;20447;-51
2022/05/15 03:43:52;;;;;;;45.05;11.32;;;;;;;13.62;59.04;102115.56;5198458;28;20418;-49
2022/05/15 03:46:24;;;;;;;46.92;12.48;;;;;;;13.43;59.18;102102.28;5202363;28;20873;-51
2022/05/15 03:49:01;;;;;;;42.95;10.82;;;;;;;13.58;59.41;102127.44;5200933;28;20562;-55
2022/05/15 03:51:34;;;;;;;34.33;10.15;;;;;;;13.19;59.38;102066.31;5199338;28;20925;-53
2022/05/15 03:54:07;;;;;;;36.57;10.20;;;;;;;12.78;59.45;102014.31;5205116;28;20542;-56
2022/05/15 03:56:53;;;;;;;46.30;10.15;;;;;;;13.53;59.39;102129.66;5198046;28;20434;-48
2022/05/15 03:59:30;;;;;;;39.72;10.50;;;;;;;13.31;59.62;102094.44;5200174;28;20435;-50
2022/05/15 04:02:05;;;;;;;35.80;9.48;;;;;;;13.55;59.93;102125.06;5189384;28;20431;-49
2022/05/15 04:04:39;;;;;;;51.58;10.48;;;;;;;13.55;59.92;102125.06;5202613;28;21795;-49
2022/05/15 04:07:11;;;;;;;41.03;10.60;;;;;;;13.42;59.91;102097.97;5204650;28;20441;-47
2022/05/15 04:09:44;;;;;;;45.05;10.65;;;;;;;13.51;59.91;102110.41;5199519;28;20438;-49
2022/05/15 04:12:19;;;;;;;39.65;10.27;;;;;;;13.38;59.95;102094.75;5207787;28;20910;-48
2022/05/15 04:14:51;;;;;;;38.38;9.80;;;;;;;13.54;60.13;102112.78;5205536;28;20428;-51
2022/05/15 04:17:23;;;;;;;36.88;10.00;;;;;;;13.60;60.08;102122.84;5189982;28;20460;-51
2022/05/15 04:20:02;;;;;;;39.07;10.70;;;;;;;13.60;60.22;102110.41;5202675;28;20546;-50
2022/05/15 04:22:35;;;;;;;38.47;9.00;;;;;;;13.60;60.19;102114.88;5198346;28;20478;-51
2022/05/15 04:25:10;;;;;;;38.35;10.38;;;;;;;13.58;60.44;102103.56;5206854;28;20437;-50
2022/05/15 04:27:45;;;;;;;49.80;11.63;;;;;;;13.61;60.24;102109.44;5197853;28;20421;-50
2022/05/15 04:30:21;;;;;;;29.67;8.00;;;;;;;13.72;60.38;102127.06;5199859;28;20515;-51
2022/05/15 04:32:55;;;;;;;44.53;9.70;;;;;;;13.71;60.30;102143.94;5204918;28;20512;-49
2022/05/15 04:35:27;;;;;;;36.40;10.07;;;;;;;13.86;60.24;102127.63;5195827;28;20419;-44
2022/05/15 04:38:00;;;;;;;45.65;8.57;;;;;;;13.86;60.11;102122.31;5200262;28;20433;-51
2022/05/15 04:40:33;;;;;;;36.03;9.23;;;;;;;13.95;60.20;102126.78;5201116;28;20567;-50
2022/05/15 04:43:07;;;;;;;40.45;9.73;;;;;;;14.00;60.15;102125.38;5204832;28;20409;-51
2022/05/15 04:45:39;;;;;;;38.58;8.80;;;;;;;14.07;60.22;102130.97;5206953;28;20528;-48
2022/05/15 04:48:12;;;;;;;36.13;8.65;;;;;;;13.86;60.11;102098.41;5199730;28;20543;-49
2022/05/15 04:50:45;;;;;;;34.20;8.90;;;;;;;13.98;60.10;102105.25;5196535;28;21120;-51
2022/05/15 04:53:17;;;;;;;27.92;7.95;;;;;;;14.19;59.98;102134.31;5203222;28;20417;-52
2022/05/15 04:55:50;;;;;;;37.05;9.32;;;;;;;14.25;59.80;102141.72;5204382;28;20431;-49
2022/05/15 04:58:24;;;;;;;31.23;7.95;;;;;;;14.32;59.73;102145.47;5200377;28;20403;-50
2022/05/15 05:00:56;;;;;;;36.70;8.30;;;;;;;14.31;59.70;102133.19;5202124;28;20419;-51
2022/05/15 05:03:29;;;;;;;35.13;9.20;;;;;;;14.43;59.67;102141.81;5197965;28;20475;-52
2022/05/15 05:06:01;;;;;;;35.13;8.65;;;;;;;14.46;59.58;102142.38;5200811;28;20436;-50
2022/05/15 05:08:34;;;;;;;36.08;9.15;;;;;;;14.49;59.77;102135.91;5203118;28;20442;-52
2022/05/15 05:11:07;;;;;;;35.55;8.35;;;;;;;14.62;59.66;102149.78;5202189;28;20511;-47
2022/05/15 05:13:41;;;;;;;35.47;8.70;;;;;;;14.68;59.47;102146.56;5201275;28;21100;-50
2022/05/15 05:16:13;;;;;;;32.17;8.77;;;;;;;14.67;59.41;102144.84;5202790;28;20520;-49
2022/05/15 05:18:46;;;;;;;34.85;8.60;;;;;;;14.81;59.42;102156.03;5189886;28;20576;-54
2022/05/15 05:21:19;;;;;;;37.38;9.30;;;;;;;14.88;59.36;102154.47;5203014;28;20413;-50
2022/05/15 05:23:51;;;;;;;38.13;8.88;;;;;;;14.98;59.17;102147.25;5204598;28;20905;-50
2022/05/15 05:26:24;;;;;;;30.95;7.90;;;;;;;15.90;58.12;102133.00;5200532;28;20794;-51
2022/05/15 05:28:58;;;;;;;29.48;7.68;;;;;;;17.31;57.17;102145.19;5201831;28;20417;-51
2022/05/15 05:31:33;;;;;;;29.23;8.07;;;;;;;18.46;55.78;102134.59;5201402;28;20494;-54
2022/05/15 05:34:06;;;;;;;27.42;7.50;;;;;;;19.64;54.58;102146.22;5202487;28;20911;-52
2022/05/15 05:36:38;;;;;;;25.13;6.57;;;;;;;20.56;53.28;102140.75;5203561;28;20527;-53
2022/05/15 05:39:11;;;;;;;28.15;6.88;;;;;;;21.08;52.53;102098.69;5208286;28;20512;-55
2022/05/15 05:41:48;;;;;;;26.98;6.95;;;;;;;22.13;51.30;102118.78;5204148;28;20446;-54
2022/05/15 05:44:22;;;;;;;21.30;5.97;;;;;;;23.01;50.26;102118.13;5204696;28;20439;-56
2022/05/15 05:46:55;;;;;;;23.17;6.57;;;;;;;23.23;49.26;102053.31;5204470;28;20499;-53
2022/05/15 05:49:28;;;;;;;25.73;6.80;;;;;;;24.22;48.52;102130.78;5204246;28;20410;-56
2022/05/15 05:52:03;;;;;;;29.17;6.30;;;;;;;24.49;47.82;102133.44;5205399;28;20911;-54
2022/05/15 05:54:35;;;;;;;25.70;6.67;;;;;;;24.59;47.34;102136.56;5196298;28;20901;-56
2022/05/15 05:57:09;;;;;;;23.38;6.38;;;;;;;24.61;46.91;102115.56;5204716;28;20423;-55
2022/05/15 05:59:45;;;;;;;30.02;6.30;;;;;;;24.90;46.36;102124.19;5199280;28;20425;-56
2022/05/15 06:02:18;;;;;;;26.27;6.65;;;;;;;25.46;45.33;102118.94;5205752;28;20396;-57
2022/05/15 06:04:50;;;;;;;26.58;6.10;;;;;;;25.16;44.86;102056.53;5188130;28;20524;-52
2022/05/15 06:07:27;;;;;;;20.63;5.57;;;;;;;25.65;44.25;102073.88;5203540;28;20776;-56
2022/05/15 06:10:03;;;;;;;26.40;6.80;;;;;;;26.12;43.74;102117.63;5201478;28;20408;-54
2022/05/15 06:12:40;;;;;;;25.10;6.35;;;;;;;26.11;43.17;102082.66;5207675;28;20480;-56
2022/05/15 06:15:14;;;;;;;17.65;6.03;;;;;;;26.93;42.15;102126.56;5196430;28;20464;-57
2022/05/15 06:17:47;;;;;;;28.38;6.93;;;;;;;27.12;41.82;102132.78;5216429;28;22282;-58
2022/05/15 06:20:19;;;;;;;19.08;5.65;;;;;;;27.36;41.18;102139.19;5205762;28;20858;-55
2022/05/15 06:22:52;;;;;;;21.88;5.95;;;;;;;27.49;40.85;102138.97;5204528;28;20431;-57
2022/05/15 06:25:25;;;;;;;22.08;5.88;;;;;;;27.62;40.57;102137.13;5203634;28;20409;-57
2022/05/15 06:27:58;;;;;;;22.25;5.63;;;;;;;28.15;39.64;102130.84;5197139;28;20426;-53
2022/05/15 06:30:32;;;;;;;19.03;5.10;;;;;;;28.48;39.16;102124.84;5216765;28;21229;-58
2022/05/15 06:33:05;;;;;;;18.17;5.63;;;;;;;28.30;39.19;102133.09;5200693;28;20431;-56
2022/05/15 06:35:37;;;;;;;19.08;5.43;;;;;;;27.95;39.29;102137.47;5192368;28;20503;-57
2022/05/15 06:38:10;;;;;;;22.52;5.88;;;;;;;27.71;39.03;102124.88;5202919;28;20423;-55
2022/05/15 06:40:42;;;;;;;20.23;5.30;;;;;;;27.24;39.27;102141.03;5204438;28;20462;-60
2022/05/15 06:43:15;;;;;;;19.03;5.80;;;;;;;26.88;39.32;102132.69;5200863;28;20556;-57
2022/05/15 06:45:49;;;;;;;21.50;5.43;;;;;;;26.97;39.15;102135.91;5204640;28;20918;-58
2022/05/15 06:48:22;;;;;;;23.05;5.65;;;;;;;27.66;38.29;102135.63;5201827;28;20415;-58
2022/05/15 06:50:54;;;;;;;19.70;5.68;;;;;;;27.91;37.86;102136.28;5201294;28;20417;-59
2022/05/15 06:53:27;;;;;;;23.10;6.00;;;;;;;27.99;37.69;102127.78;5201841;28;20463;-49
2022/05/15 06:58:49;;;;;;;22.05;4.90;;;;;;;28.06;37.15;102105.97;5187604;28;20551;-57
2022/05/15 07:01:23;;;;;;;18.73;5.47;;;;;;;28.31;36.88;102124.72;5170774;28;20565;-57
2022/05/15 07:03:56;;;;;;;24.10;6.05;;;;;;;28.27;36.88;102112.66;5196880;28;20423;-58
2022/05/15 07:06:30;;;;;;;17.88;4.88;;;;;;;28.50;36.61;102125.44;5198802;28;20931;-58
2022/05/15 07:09:02;;;;;;;23.23;5.68;;;;;;;28.91;36.30;102129.81;5189978;28;20500;-58
2022/05/15 07:11:34;;;;;;;20.30;5.75;;;;;;;28.96;36.07;102121.78;5205821;28;20515;-58
2022/05/15 07:14:08;;;;;;;19.83;5.80;;;;;;;28.82;35.92;102100.53;5190671;28;20847;-58
2022/05/15 07:16:42;;;;;;;16.70;5.20;;;;;;;28.96;35.87;102127.22;5191655;28;20521;-58
2022/05/15 07:19:14;;;;;;;24.20;5.25;;;;;;;28.75;35.98;102121.63;5195850;28;20434;-58
2022/05/15 07:21:47;;;;;;;19.40;5.47;;;;;;;28.21;36.32;102065.56;5200959;28;20657;-58
2022/05/15 07:24:20;;;;;;;21.17;5.53;;;;;;;28.14;36.43;102113.72;5199419;28;20490;-59
2022/05/15 07:26:53;;;;;;;18.73;5.25;;;;;;;27.69;36.82;102127.00;5197890;28;20588;-58
2022/05/15 07:29:26;;;;;;;19.40;5.30;;;;;;;27.53;36.97;102129.34;5196635;28;20441;-57
2022/05/15 07:31:59;;;;;;;20.93;5.47;;;;;;;27.48;37.01;102131.09;5195570;28;20414;-57
2022/05/15 07:34:32;;;;;;;18.63;4.80;;;;;;;27.07;37.19;102130.78;5201450;28;20411;-59
2022/05/15 07:37:05;;;;;;;16.27;4.90;;;;;;;26.85;37.57;102132.28;5195317;28;20783;-57
2022/05/15 07:39:38;;;;;;;20.02;5.20;;;;;;;27.31;36.92;102129.00;5194964;28;20793;-57
2022/05/15 07:42:11;;;;;;;18.25;5.07;;;;;;;27.55;36.51;102127.19;5198582;28;20446;-56
2022/05/15 07:44:44;;;;;;;21.13;6.18;;;;;;;26.99;37.12;102133.78;5179340;28;20942;-59
2022/05/15 07:47:18;;;;;;;22.17;5.73;;;;;;;26.66;37.34;102115.22;5206420;28;20409;-58
2022/05/15 07:49:50;;;;;;;21.35;5.65;;;;;;;26.53;37.45;102108.06;5202322;28;20766;-56
2022/05/15 07:52:23;;;;;;;17.38;4.70;;;;;;;26.29;37.71;102107.03;5190275;28;20854;-57
2022/05/15 07:54:56;;;;;;;20.13;5.03;;;;;;;26.11;37.81;102120.56;5192481;28;20425;-55
2022/05/15 07:57:29;;;;;;;19.88;5.70;;;;;;;26.09;37.87;102119.97;5179070;28;20442;-53
2022/05/15 08:00:03;;;;;;;18.95;6.78;;;;;;;26.19;37.66;102126.50;5193997;28;20936;-53
2022/05/15 08:02:37;;;;;;;19.88;4.57;;;;;;;25.73;37.89;102097.09;5193567;28;20433;-54
2022/05/15 08:08:02;;;;;;;19.10;5.70;;;;;;;26.02;37.93;102125.44;5175641;28;20427;-57
2022/05/15 08:10:38;;;;;;;18.08;5.95;;;;;;;26.04;37.76;102117.91;5194308;28;20443;-53
2022/05/15 08:13:13;;;;;;;20.17;5.40;;;;;;;25.88;37.70;102121.16;5190948;28;20504;-54
2022/05/15 08:15:46;;;;;;;18.20;6.00;;;;;;;25.60;38.33;102121.56;5191172;28;20429;-53
2022/05/15 08:24:02;;;;;;;19.80;5.60;;;;;;;24.80;38.99;102109.25;5198251;28;20417;-52
2022/05/15 08:26:35;;;;;;;21.48;5.85;;;;;;;24.60;38.90;102086.91;5199361;28;20445;-54
2022/05/15 08:29:07;;;;;;;17.88;5.22;;;;;;;24.93;38.76;102115.66;5200352;28;20491;-52
2022/05/15 08:31:40;;;;;;;17.73;5.20;;;;;;;24.73;38.62;102103.06;5196874;28;20444;-53
2022/05/15 08:34:15;;;;;;;16.23;5.50;;;;;;;24.38;38.91;102099.81;5182209;28;20463;-55
2022/05/15 08:36:47;;;;;;;15.73;5.35;;;;;;;24.16;39.18;102104.63;5182107;28;22755;-53
2022/05/15 08:39:20;;;;;;;26.80;6.35;;;;;;;23.93;39.11;102054.59;5190614;28;20966;-54
2022/05/15 08:42:15;;;;;;;20.13;5.75;;;;;;;24.24;38.91;102093.59;5193182;28;20569;-54
2022/05/15 08:44:49;;;;;;;22.25;6.10;;;;;;;24.29;38.77;102107.28;5193826;28;20837;-50
2022/05/15 08:47:34;;;;;;;19.52;6.57;;;;;;;24.17;38.73;102093.59;5198296;28;20492;-49
2022/05/15 08:50:14;;;;;;;23.90;6.80;;;;;;;23.91;38.90;102099.84;5195659;28;20500;-53
2022/05/15 08:52:53;;;;;;;20.52;6.00;;;;;;;23.69;38.85;102068.72;5202831;28;20412;-53
2022/05/15 08:55:35;;;;;;;21.42;5.78;;;;;;;23.60;39.13;102068.06;5199126;28;20923;-52
2022/05/15 08:58:10;;;;;;;19.37;5.23;;;;;;;23.48;39.06;102073.25;5197347;28;20496;-50
2022/05/15 09:00:47;;;;;;;19.85;6.00;;;;;;;23.43;39.11;102064.94;5199103;28;20486;-49
2022/05/15 09:03:22;;;;;;;22.87;5.90;;;;;;;23.44;39.11;102074.69;5198511;28;20472;-52
2022/05/15 09:06:01;;;;;;;19.35;5.72;;;;;;;23.41;39.33;102085.03;5189445;28;20423;-52
2022/05/15 09:08:58;;;;;;;23.65;6.18;;;;;;;23.52;39.28;102083.63;5198972;28;20788;-51
2022/05/15 09:11:46;;;;;;;17.27;5.32;;;;;;;23.55;39.30;102084.03;5195800;28;20763;-51
2022/05/15 09:14:38;;;;;;;22.75;7.10;;;;;;;23.44;39.44;102080.09;5203806;28;20484;-51
2022/05/15 09:17:22;;;;;;;19.88;6.05;;;;;;;23.26;39.78;102090.63;5195809;28;20818;-51
2022/05/15 09:19:58;;;;;;;22.00;6.18;;;;;;;23.22;39.80;102092.03;5210694;28;20429;-52
2022/05/15 09:22:37;;;;;;;17.33;5.15;;;;;;;23.13;39.97;102101.34;5199377;28;20419;-52
2022/05/15 09:25:18;;;;;;;22.35;6.05;;;;;;;23.10;39.96;102086.41;5201047;28;20532;-53
2022/05/15 09:28:06;;;;;;;25.67;6.13;;;;;;;23.12;40.06;102086.22;5197447;28;20788;-53
2022/05/15 09:30:43;;;;;;;20.42;5.57;;;;;;;23.26;39.94;102082.53;5194249;28;20445;-54
2022/05/15 09:33:27;;;;;;;21.63;6.45;;;;;;;23.30;40.07;102074.88;5193435;28;21041;-52
2022/05/15 09:36:23;;;;;;;22.40;5.78;;;;;;;23.32;39.83;102084.41;5196438;28;20417;-52
2022/05/15 09:39:23;;;;;;;17.45;5.43;;;;;;;23.42;39.72;102089.41;5198710;28;20555;-52
2022/05/15 09:45:20;;;;;;;17.70;5.90;;;;;;;23.34;39.90;102076.94;5187527;28;20413;-48
2022/05/15 09:48:05;;;;;;;19.60;5.07;;;;;;;23.21;40.06;102049.97;5196319;28;20501;-53
2022/05/15 09:50:52;;;;;;;16.85;5.32;;;;;;;23.29;39.94;102055.19;5198063;28;20398;-52
2022/05/15 09:53:32;;;;;;;23.20;6.45;;;;;;;23.45;39.78;102068.25;5194769;28;20429;-53
2022/05/15 09:56:10;;;;;;;21.63;6.25;;;;;;;23.55;39.93;102067.84;5198749;28;20707;-47
2022/05/15 09:58:46;;;;;;;21.63;6.40;;;;;;;23.59;39.82;102060.19;5199086;28;21020;-51
2022/05/15 10:01:27;;;;;;;17.05;5.18;;;;;;;23.66;39.74;102053.75;5200552;28;20427;-50
2022/05/15 10:04:00;;;;;;;25.45;6.60;;;;;;;23.65;39.73;102029.69;5194993;28;20421;-48
2022/05/15 10:06:37;;;;;;;21.48;5.78;;;;;;;23.77;39.35;102044.22;5199229;28;20714;-50
2022/05/15 10:09:15;;;;;;;23.13;5.72;;;;;;;23.98;39.32;102055.84;5200110;28;20425;-49
2022/05/15 10:11:52;;;;;;;25.27;6.03;;;;;;;23.96;39.46;102057.91;5198376;28;20743;-48
2022/05/15 10:14:34;;;;;;;19.85;5.80;;;;;;;23.68;39.51;102023.88;5194612;28;20504;-46
2022/05/15 10:17:08;;;;;;;23.98;5.82;;;;;;;23.90;39.43;102049.63;5192921;28;20445;-48
2022/05/15 10:19:47;;;;;;;25.13;6.30;;;;;;;24.15;39.26;102038.16;5194180;28;20428;-53
2022/05/15 10:22:32;;;;;;;18.30;5.20;;;;;;;24.33;39.03;102053.69;5195413;28;20418;-51
2022/05/15 10:25:17;;;;;;;20.08;5.85;;;;;;;24.38;38.88;102033.13;5186490;28;20471;-50
2022/05/15 10:27:55;;;;;;;18.13;5.55;;;;;;;24.45;38.94;102041.22;5193040;28;20967;-51
2022/05/15 10:30:36;;;;;;;20.90;5.43;;;;;;;24.32;38.94;102042.06;5190466;28;20861;-53
2022/05/15 10:33:15;;;;;;;16.98;4.65;;;;;;;24.33;38.81;102027.53;5195409;28;20424;-53
2022/05/15 10:35:54;;;;;;;20.08;5.55;;;;;;;24.52;38.48;102022.31;5190091;28;20787;-52
2022/05/15 10:38:50;;;;;;;17.00;5.47;;;;;;;24.98;38.55;102023.94;5184679;28;20495;-51
2022/05/15 10:41:31;;;;;;;20.80;5.53;;;;;;;25.12;37.96;102035.53;5200533;28;20494;-49
2022/05/15 10:44:19;;;;;;;19.60;5.43;;;;;;;24.84;38.05;102004.28;5196926;28;20546;-50
2022/05/15 10:46:56;;;;;;;19.50;5.15;;;;;;;24.74;38.29;102022.81;5189601;28;20785;-53
2022/05/15 10:49:52;;;;;;;20.77;5.70;;;;;;;24.70;38.00;102024.31;5185772;28;20417;-46
2022/05/15 10:52:50;;;;;;;19.50;5.97;;;;;;;24.42;37.67;101922.03;5187708;28;20427;-53
2022/05/15 10:58:28;;;;;;;18.63;4.78;;;;;;;25.30;37.40;102022.97;5195175;28;20472;-52
2022/05/15 11:01:08;;;;;;;24.70;5.10;;;;;;;25.16;37.27;102005.16;5190184;28;20773;-52
2022/05/15 11:03:54;;;;;;;14.07;4.90;;;;;;;25.19;37.08;102015.53;5192632;28;20809;-49
2022/05/15 11:06:57;;;;;;;18.02;4.32;;;;;;;25.20;36.88;102016.34;5191724;28;20557;-53
2022/05/15 11:09:39;;;;;;;17.75;5.13;;;;;;;25.32;36.62;102011.91;5189064;28;20421;-51
2022/05/15 11:12:26;;;;;;;18.45;5.75;;;;;;;25.45;36.51;102019.09;5185526;28;20889;-53
2022/05/15 11:15:14;;;;;;;25.42;6.18;;;;;;;25.45;36.44;101997.44;5197770;28;20908;-43
2022/05/15 11:17:54;;;;;;;21.63;5.93;;;;;;;25.58;36.10;101991.94;5186000;28;20590;-50
2022/05/15 11:20:33;;;;;;;20.37;5.27;;;;;;;25.26;36.20;101983.84;5177851;28;20425;-50
2022/05/15 11:23:16;;;;;;;18.88;5.45;;;;;;;25.13;36.18;101958.81;5186528;28;20521;-51
2022/05/15 11:25:54;;;;;;;33.67;5.20;;;;;;;25.40;35.96;102005.41;5190805;28;23239;-47
2022/05/15 11:28:32;;;;;;;19.77;5.32;;;;;;;25.66;35.54;102005.16;5191442;28;20479;-52
2022/05/15 11:31:09;;;;;;;15.88;4.43;;;;;;;25.75;35.21;101982.19;5194579;28;20420;-52
2022/05/15 11:33:58;;;;;;;19.83;5.78;;;;;;;26.05;34.98;102002.34;5191912;28;20435;-50
2022/05/15 11:36:36;;;;;;;15.05;4.50;;;;;;;26.20;34.78;101983.81;5179003;28;21012;-49
2022/05/15 11:39:27;;;;;;;13.60;4.15;;;;;;;26.29;34.49;101984.34;5187908;28;20433;-51
2022/05/15 11:42:17;;;;;;;21.25;5.28;;;;;;;26.42;34.34;101986.91;5185767;28;20412;-50
2022/05/15 11:44:50;;;;;;;15.68;4.40;;;;;;;26.43;34.23;101975.84;5189719;28;20605;-52
2022/05/15 11:47:34;;;;;;;17.20;4.50;;;;;;;26.33;34.17;101961.19;5186579;28;20421;-52
2022/05/15 11:50:15;;;;;;;14.10;4.35;;;;;;;26.36;33.95;101975.09;5182678;28;20413;-49
2022/05/15 11:53:07;;;;;;;18.25;4.35;;;;;;;25.99;34.02;101966.16;5193890;28;20415;-53
2022/05/15 11:55:47;;;;;;;15.55;4.45;;;;;;;25.94;34.20;101974.13;5198311;28;20508;-49
2022/05/15 11:58:33;;;;;;;13.73;3.78;;;;;;;26.12;33.76;101968.72;5195362;28;20455;-50
2022/05/15 12:01:14;;;;;;;19.63;5.13;;;;;;;26.21;33.61;101959.22;5202834;28;20425;-53
2022/05/15 12:03:56;;;;;;;16.95;4.15;;;;;;;26.26;33.40;101945.00;5198178;28;20459;-48
2022/05/15 12:06:33;;;;;;;16.70;4.15;;;;;;;26.32;33.36;101948.69;5205895;28;20427;-49
2022/05/15 12:09:27;;;;;;;19.98;5.05;;;;;;;26.28;33.26;101951.03;5194662;28;20418;-49
2022/05/15 12:12:56;;;;;;;16.37;4.17;;;;;;;26.20;33.24;101944.06;5201274;28;20483;-52
2022/05/15 12:15:40;;;;;;;20.23;4.27;;;;;;;26.30;33.18;101945.41;5199087;28;20830;-52
2022/05/15 12:18:32;;;;;;;17.17;4.35;;;;;;;26.39;33.01;101950.28;5198652;28;20520;-49
2022/05/15 12:21:10;;;;;;;13.68;4.22;;;;;;;26.34;33.10;101942.00;5184856;28;20441;-50